createdAt,value
2019-05-26T00:00:15.867Z,3.70
2019-05-26T00:02:44.272Z,3.60
2019-05-26T00:05:12.794Z,4.27
2019-05-26T00:07:41.183Z,4.30
2019-05-26T00:10:10.281Z,3.93
2019-05-26T00:12:39.013Z,4.13
2019-05-26T00:15:07.711Z,4.03
2019-05-26T00:17:36.117Z,4.30
2019-05-26T00:20:07.192Z,4.00
2019-05-26T00:22:35.590Z,4.10
2019-05-26T00:25:05.397Z,3.83
2019-05-26T00:27:33.791Z,3.80
2019-05-26T00:30:02.222Z,4.53
2019-05-26T00:32:30.624Z,4.27
2019-05-26T00:34:59.057Z,4.20
2019-05-26T00:37:27.469Z,4.30
2019-05-26T00:39:55.980Z,4.33
2019-05-26T00:42:24.384Z,4.57
2019-05-26T00:44:52.790Z,4.37
2019-05-26T00:47:21.294Z,5.00
2019-05-26T00:49:49.692Z,5.00
2019-05-26T00:52:18.121Z,5.17
2019-05-26T00:54:46.523Z,5.07
2019-05-26T00:57:14.960Z,4.97
2019-05-26T00:59:43.355Z,5.70
2019-05-26T01:02:17.606Z,5.67
2019-05-26T01:04:46.010Z,5.80
2019-05-26T01:07:14.508Z,6.07
2019-05-26T01:09:42.924Z,5.83
2019-05-26T01:12:11.406Z,6.90
2019-05-26T01:14:39.808Z,6.90
2019-05-26T01:17:08.306Z,7.33
2019-05-26T01:19:36.708Z,6.80
2019-05-26T01:22:05.140Z,7.20
2019-05-26T01:24:33.544Z,7.40
2019-05-26T01:27:01.982Z,7.00
2019-05-26T01:29:30.379Z,7.23
2019-05-26T01:31:58.809Z,6.80
2019-05-26T01:34:27.221Z,6.60
2019-05-26T01:36:55.794Z,8.93
2019-05-26T01:39:24.265Z,8.13
2019-05-26T01:41:52.694Z,7.00
2019-05-26T01:44:21.096Z,7.30
2019-05-26T01:46:49.529Z,7.70
2019-05-26T01:49:17.935Z,7.77
2019-05-26T01:51:46.363Z,7.53
2019-05-26T01:54:14.770Z,7.60
2019-05-26T01:56:43.167Z,7.43
2019-05-26T01:59:11.608Z,7.20
2019-05-26T02:01:40.048Z,7.70
2019-05-26T02:04:08.475Z,8.03
2019-05-26T02:06:36.882Z,7.80
2019-05-26T02:09:07.726Z,8.10
2019-05-26T02:11:36.129Z,7.90
2019-05-26T02:14:04.630Z,8.37
2019-05-26T02:16:33.035Z,8.00
2019-05-26T02:19:01.518Z,8.40
2019-05-26T02:21:29.950Z,8.03
2019-05-26T02:23:58.376Z,8.30
2019-05-26T02:26:26.782Z,8.03
2019-05-26T02:28:55.212Z,8.00
2019-05-26T02:31:23.687Z,7.20
2019-05-26T02:33:52.117Z,7.27
2019-05-26T02:36:20.518Z,8.27
2019-05-26T02:39:01.348Z,8.23
2019-05-26T02:41:19.074Z,7.80
2019-05-26T02:43:47.503Z,8.07
2019-05-26T02:46:15.898Z,8.00
2019-05-26T02:48:44.335Z,7.27
2019-05-26T02:51:12.740Z,7.43
2019-05-26T02:53:41.172Z,8.50
2019-05-26T02:56:09.644Z,7.33
2019-05-26T02:58:38.071Z,7.80
2019-05-26T03:01:06.479Z,7.60
2019-05-26T03:03:34.981Z,6.87
2019-05-26T03:06:04.120Z,7.70
2019-05-26T03:08:33.345Z,7.37
2019-05-26T03:11:02.194Z,7.43
2019-05-26T03:13:33.608Z,8.00
2019-05-26T03:16:02.985Z,7.50
2019-05-26T03:18:33.081Z,7.50
2019-05-26T03:21:03.329Z,7.73
2019-05-26T03:23:32.375Z,7.80
2019-05-26T03:26:00.871Z,7.73
2019-05-26T03:28:29.282Z,7.93
2019-05-26T03:30:57.707Z,7.70
2019-05-26T03:33:26.122Z,7.50
2019-05-26T03:35:54.542Z,7.70
2019-05-26T03:38:22.947Z,7.60
2019-05-26T03:40:51.510Z,8.10
2019-05-26T03:43:19.913Z,8.50
2019-05-26T03:46:08.519Z,7.67
2019-05-26T03:48:36.913Z,7.83
2019-05-26T03:51:05.352Z,8.63
2019-05-26T03:53:33.757Z,7.80
2019-05-26T03:56:02.261Z,8.20
2019-05-26T03:58:30.728Z,8.20
2019-05-26T04:00:59.157Z,7.40
2019-05-26T04:03:27.575Z,8.10
2019-05-26T04:05:55.996Z,6.60
2019-05-26T04:08:24.407Z,7.60
2019-05-26T04:10:52.902Z,8.13
2019-05-26T04:13:21.546Z,7.70
2019-05-26T04:15:50.004Z,7.20
2019-05-26T04:18:18.393Z,7.37
2019-05-26T04:20:46.822Z,7.97
2019-05-26T04:23:15.224Z,7.37
2019-05-26T04:25:43.651Z,7.17
2019-05-26T04:28:12.066Z,7.53
2019-05-26T04:30:40.483Z,7.57
2019-05-26T04:33:08.887Z,7.83
2019-05-26T04:35:37.315Z,7.00
2019-05-26T04:38:05.729Z,7.07
2019-05-26T04:40:34.160Z,7.13
2019-05-26T04:43:02.567Z,7.97
2019-05-26T04:45:30.993Z,7.30
2019-05-26T04:47:59.603Z,6.77
2019-05-26T04:50:28.040Z,7.80
2019-05-26T04:53:06.063Z,7.93
2019-05-26T04:55:26.581Z,7.47
2019-05-26T04:57:55.000Z,6.80
2019-05-26T05:00:23.476Z,8.43
2019-05-26T05:02:51.908Z,7.33
2019-05-26T05:05:20.375Z,6.93
2019-05-26T05:07:48.811Z,7.00
2019-05-26T05:10:17.291Z,6.80
2019-05-26T05:12:45.894Z,7.40
2019-05-26T05:15:14.441Z,7.07
2019-05-26T05:17:42.882Z,7.20
2019-05-26T05:20:12.205Z,7.40
2019-05-26T05:22:40.637Z,6.53
2019-05-26T05:25:14.658Z,7.03
2019-05-26T05:27:39.290Z,7.00
2019-05-26T05:30:08.830Z,6.50
2019-05-26T05:32:37.272Z,7.03
2019-05-26T05:35:07.792Z,6.30
2019-05-26T05:37:36.230Z,6.90
2019-05-26T05:40:06.871Z,6.27
2019-05-26T05:42:35.304Z,6.80
2019-05-26T05:45:04.852Z,5.83
2019-05-26T05:47:33.294Z,6.60
2019-05-26T05:50:01.721Z,6.20
2019-05-26T05:52:30.132Z,6.40
2019-05-26T05:54:58.538Z,6.30
2019-05-26T05:57:26.973Z,6.60
2019-05-26T05:59:55.385Z,5.90
2019-05-26T06:02:23.816Z,6.73
2019-05-26T06:04:52.227Z,6.50
2019-05-26T06:07:20.669Z,6.40
2019-05-26T06:09:49.082Z,6.47
2019-05-26T06:12:17.494Z,6.23
2019-05-26T06:14:45.942Z,6.53
2019-05-26T06:17:14.341Z,6.30
2019-05-26T06:19:42.774Z,6.33
2019-05-26T06:22:11.181Z,6.47
2019-05-26T06:24:39.610Z,6.13
2019-05-26T06:27:08.016Z,5.70
2019-05-26T06:29:36.459Z,6.50
2019-05-26T06:32:05.449Z,6.43
2019-05-26T06:34:34.147Z,5.80
2019-05-26T06:37:02.555Z,6.10
2019-05-26T06:39:30.987Z,6.50
2019-05-26T06:41:59.392Z,6.30
2019-05-26T06:44:27.829Z,6.00
2019-05-26T06:46:56.310Z,6.07
2019-05-26T06:49:24.738Z,6.50
2019-05-26T06:51:53.150Z,6.30
2019-05-26T06:54:21.585Z,6.10
2019-05-26T06:56:49.994Z,6.13
2019-05-26T06:59:18.422Z,6.10
2019-05-26T07:01:46.826Z,6.50
2019-05-26T07:04:15.261Z,6.20
2019-05-26T07:06:43.677Z,6.37
2019-05-26T07:09:12.108Z,6.50
2019-05-26T07:11:53.789Z,5.83
2019-05-26T07:14:10.680Z,5.47
2019-05-26T07:16:39.100Z,5.63
2019-05-26T07:19:07.599Z,5.00
2019-05-26T07:21:36.007Z,5.27
2019-05-26T07:24:04.723Z,5.73
2019-05-26T07:26:33.203Z,4.77
2019-05-26T07:29:01.609Z,4.93
2019-05-26T07:31:30.043Z,4.70
2019-05-26T07:33:58.452Z,5.23
2019-05-26T07:36:26.890Z,5.07
2019-05-26T07:38:55.311Z,5.10
2019-05-26T07:41:23.806Z,4.90
2019-05-26T07:43:52.212Z,4.87
2019-05-26T07:46:20.646Z,4.23
2019-05-26T07:48:49.053Z,4.73
2019-05-26T07:51:17.481Z,5.10
2019-05-26T07:53:45.895Z,5.10
2019-05-26T07:56:14.395Z,4.87
2019-05-26T07:58:42.801Z,5.20
2019-05-26T08:01:11.233Z,5.30
2019-05-26T08:03:39.636Z,6.00
2019-05-26T08:06:08.070Z,5.10
2019-05-26T08:08:36.475Z,5.10
2019-05-26T08:11:04.979Z,5.70
2019-05-26T08:13:33.385Z,6.87
2019-05-26T08:16:01.806Z,7.20
2019-05-26T08:18:30.275Z,6.33
2019-05-26T08:20:58.712Z,8.27
2019-05-26T08:23:27.117Z,6.93
2019-05-26T08:25:55.659Z,7.10
2019-05-26T08:28:24.333Z,7.93
2019-05-26T08:30:52.766Z,6.60
2019-05-26T08:33:21.242Z,6.67
2019-05-26T08:35:49.686Z,6.70
2019-05-26T08:38:18.093Z,6.27
2019-05-26T08:40:46.521Z,6.83
2019-05-26T08:43:14.926Z,6.20
2019-05-26T08:45:43.396Z,6.33
2019-05-26T08:48:11.853Z,7.40
2019-05-26T08:50:40.234Z,6.20
2019-05-26T08:53:08.670Z,6.30
2019-05-26T08:55:37.074Z,5.90
2019-05-26T08:58:05.851Z,5.73
2019-05-26T09:00:34.341Z,5.20
2019-05-26T09:03:03.610Z,5.07
2019-05-26T09:05:32.015Z,4.83
2019-05-26T09:08:00.447Z,5.20
2019-05-26T09:10:28.926Z,4.67
2019-05-26T09:13:01.293Z,4.60
2019-05-26T09:15:27.490Z,4.70
2019-05-26T09:17:55.913Z,4.30
2019-05-26T09:20:24.455Z,5.30
2019-05-26T09:22:52.889Z,5.60
2019-05-26T09:25:21.302Z,5.03
2019-05-26T09:27:49.730Z,4.83
2019-05-26T09:30:18.679Z,4.23
2019-05-26T09:32:47.170Z,4.40
2019-05-26T09:35:15.637Z,4.40
2019-05-26T09:37:44.064Z,4.17
2019-05-26T09:40:12.706Z,3.60
2019-05-26T09:42:41.135Z,3.70
2019-05-26T09:45:10.186Z,3.83
2019-05-26T09:47:38.682Z,4.37
2019-05-26T09:50:08.320Z,4.63
2019-05-26T09:52:37.289Z,4.10
2019-05-26T09:55:07.601Z,3.90
2019-05-26T09:57:36.227Z,4.27
2019-05-26T10:00:06.540Z,4.10
2019-05-26T10:02:35.085Z,4.00
2019-05-26T10:05:04.852Z,4.07
2019-05-26T10:07:33.256Z,3.83
2019-05-26T10:10:01.689Z,3.67
2019-05-26T10:12:30.095Z,3.97
2019-05-26T10:14:58.526Z,3.90
2019-05-26T10:17:26.937Z,3.63
2019-05-26T10:19:55.360Z,4.00
2019-05-26T10:22:23.764Z,3.70
2019-05-26T10:24:52.195Z,3.80
2019-05-26T10:27:20.600Z,3.73
2019-05-26T10:29:49.027Z,3.80
2019-05-26T10:32:17.433Z,3.93
2019-05-26T10:34:45.868Z,3.43
2019-05-26T10:37:14.266Z,3.43
2019-05-26T10:39:45.043Z,3.83
2019-05-26T10:42:12.834Z,3.57
2019-05-26T10:44:41.257Z,3.37
2019-05-26T10:47:09.665Z,3.10
2019-05-26T10:49:38.416Z,3.50
2019-05-26T10:52:07.014Z,3.43
2019-05-26T10:54:35.448Z,3.83
2019-05-26T10:57:03.923Z,4.00
2019-05-26T10:59:32.357Z,4.13
2019-05-26T11:02:00.766Z,4.20
2019-05-26T11:04:29.194Z,3.50
2019-05-26T11:06:57.597Z,5.23
2019-05-26T11:09:26.035Z,3.80
2019-05-26T11:11:54.434Z,4.90
2019-05-26T11:14:22.842Z,4.73
2019-05-26T11:16:51.491Z,4.00
2019-05-26T11:19:19.963Z,4.50
2019-05-26T11:21:48.395Z,3.87
2019-05-26T11:24:16.799Z,4.10
2019-05-26T11:26:45.299Z,3.60
2019-05-26T11:29:13.703Z,3.73
2019-05-26T11:31:42.125Z,4.23
2019-05-26T11:34:10.525Z,4.20
2019-05-26T11:36:39.031Z,3.93
2019-05-26T11:39:08.372Z,4.30
2019-05-26T11:41:36.805Z,3.90
2019-05-26T11:44:17.042Z,4.30
2019-05-26T11:46:35.432Z,4.40
2019-05-26T11:49:03.901Z,3.87
2019-05-26T11:51:32.336Z,4.40
2019-05-26T11:54:00.733Z,4.13
2019-05-26T11:56:29.170Z,4.47
2019-05-26T11:58:57.572Z,4.10
2019-05-26T12:01:26.001Z,4.13
2019-05-26T12:03:54.406Z,4.70
2019-05-26T12:06:22.907Z,4.00
2019-05-26T12:08:51.323Z,4.43
2019-05-26T12:11:19.827Z,3.57
2019-05-26T12:13:48.229Z,4.10
2019-05-26T12:16:16.664Z,3.80
2019-05-26T12:18:45.061Z,4.20
2019-05-26T12:21:13.478Z,4.40
2019-05-26T12:23:41.906Z,4.13
2019-05-26T12:26:10.318Z,4.70
2019-05-26T12:28:38.820Z,5.00
2019-05-26T12:31:07.231Z,5.90
2019-05-26T12:33:35.658Z,5.47
2019-05-26T12:36:04.427Z,6.27
2019-05-26T12:38:34.499Z,5.10
2019-05-26T12:41:02.914Z,5.80
2019-05-26T12:43:31.341Z,6.20
2019-05-26T12:45:59.745Z,5.60
2019-05-26T12:48:28.180Z,5.53
2019-05-26T12:50:56.655Z,6.10
2019-05-26T12:53:25.087Z,5.53
2019-05-26T12:55:53.484Z,5.70
2019-05-26T12:58:21.914Z,5.30
2019-05-26T13:00:54.660Z,5.20
2019-05-26T13:03:20.470Z,5.60
2019-05-26T13:05:48.868Z,5.97
2019-05-26T13:08:17.295Z,6.13
2019-05-26T13:10:45.707Z,5.90
2019-05-26T13:13:14.144Z,6.17
2019-05-26T13:15:42.546Z,5.43
2019-05-26T13:18:10.977Z,5.20
2019-05-26T13:20:39.515Z,5.07
2019-05-26T13:23:07.945Z,5.60
2019-05-26T13:25:36.358Z,5.20
2019-05-26T13:28:04.950Z,5.27
2019-05-26T13:30:34.686Z,5.60
2019-05-26T13:33:03.127Z,4.93
2019-05-26T13:35:31.532Z,5.10
2019-05-26T13:37:59.944Z,4.53
2019-05-26T13:40:29.724Z,4.30
2019-05-26T13:42:58.219Z,5.07
2019-05-26T13:45:26.657Z,4.80
2019-05-26T13:47:55.058Z,5.07
2019-05-26T13:50:23.560Z,5.30
2019-05-26T13:52:51.974Z,5.07
2019-05-26T13:55:21.254Z,5.30
2019-05-26T13:57:49.890Z,5.00
2019-05-26T14:00:18.849Z,4.97
2019-05-26T14:02:47.315Z,4.90
2019-05-26T14:05:16.913Z,4.80
2019-05-26T14:07:45.315Z,4.50
2019-05-26T14:10:14.089Z,4.87
2019-05-26T14:12:42.568Z,4.77
2019-05-26T14:15:11.373Z,4.57
2019-05-26T14:17:39.815Z,4.13
2019-05-26T14:20:09.285Z,3.97
2019-05-26T14:22:37.694Z,4.67
2019-05-26T14:25:07.057Z,4.20
2019-05-26T14:27:35.458Z,4.80
2019-05-26T14:30:05.128Z,4.30
2019-05-26T14:32:33.530Z,4.63
2019-05-26T14:35:01.977Z,4.30
2019-05-26T14:37:30.375Z,4.20
2019-05-26T14:39:58.798Z,3.97
2019-05-26T14:42:27.207Z,3.90
2019-05-26T14:44:55.645Z,4.20
2019-05-26T14:47:24.131Z,4.17
2019-05-26T14:49:52.531Z,4.00
2019-05-26T14:52:20.969Z,4.10
2019-05-26T14:54:49.372Z,3.73
2019-05-26T14:57:17.810Z,3.80
2019-05-26T14:59:46.232Z,4.13
2019-05-26T15:02:14.646Z,4.10
2019-05-26T15:04:43.075Z,3.80
2019-05-26T15:07:11.483Z,3.97
2019-05-26T15:09:39.885Z,4.50
2019-05-26T15:12:08.319Z,4.10
2019-05-26T15:14:36.725Z,4.80
2019-05-26T15:17:05.224Z,4.30
2019-05-26T15:19:33.633Z,4.70
2019-05-26T15:22:02.074Z,4.70
2019-05-26T15:24:30.459Z,4.13
2019-05-26T15:26:58.886Z,4.67
2019-05-26T15:29:27.292Z,4.03
2019-05-26T15:31:55.721Z,4.60
2019-05-26T15:34:24.127Z,4.80
2019-05-26T15:36:52.550Z,4.30
2019-05-26T15:39:20.961Z,4.70
2019-05-26T15:41:49.360Z,5.27
2019-05-26T15:44:17.786Z,4.60
2019-05-26T15:46:46.194Z,4.77
2019-05-26T15:49:14.631Z,4.30
2019-05-26T15:51:43.032Z,5.07
2019-05-26T15:54:11.470Z,4.67
2019-05-26T15:56:39.865Z,5.33
2019-05-26T15:59:08.300Z,4.80
2019-05-26T16:01:36.704Z,5.27
2019-05-26T16:04:05.216Z,4.93
2019-05-26T16:06:33.614Z,4.97
2019-05-26T16:09:02.039Z,5.20
2019-05-26T16:11:30.445Z,4.60
2019-05-26T16:13:58.904Z,4.83
2019-05-26T16:16:40.166Z,5.10
2019-05-26T16:18:57.453Z,5.20
2019-05-26T16:21:28.298Z,4.83
2019-05-26T16:23:56.012Z,4.67
2019-05-26T16:26:24.418Z,5.10
2019-05-26T16:28:52.847Z,5.67
2019-05-26T16:31:21.247Z,4.57
2019-05-26T16:33:49.749Z,5.17
2019-05-26T16:36:21.135Z,5.00
2019-05-26T16:38:48.318Z,5.90
2019-05-26T16:41:16.721Z,4.97
2019-05-26T16:43:45.155Z,4.90
2019-05-26T16:46:13.562Z,5.20
2019-05-26T16:48:41.992Z,5.50
2019-05-26T16:51:10.397Z,4.90
2019-05-26T16:53:38.847Z,4.63
2019-05-26T16:56:07.247Z,5.20
2019-05-26T16:58:35.656Z,5.20
2019-05-26T17:01:04.088Z,5.57
2019-05-26T17:03:32.503Z,5.10
2019-05-26T17:06:07.804Z,4.40
2019-05-26T17:08:31.070Z,5.00
2019-05-26T17:10:59.502Z,4.63
2019-05-26T17:13:27.909Z,4.73
2019-05-26T17:15:56.343Z,4.40
2019-05-26T17:18:24.751Z,4.53
2019-05-26T17:20:53.190Z,4.73
2019-05-26T17:23:21.647Z,5.17
2019-05-26T17:25:50.075Z,5.20
2019-05-26T17:28:18.475Z,5.13
2019-05-26T17:30:46.905Z,4.87
2019-05-26T17:33:15.304Z,4.90
2019-05-26T17:35:43.738Z,4.77
2019-05-26T17:38:12.141Z,4.60
2019-05-26T17:40:40.581Z,5.13
2019-05-26T17:43:08.979Z,5.47
2019-05-26T17:45:37.413Z,5.23
2019-05-26T17:48:05.814Z,5.07
2019-05-26T17:50:34.317Z,5.10
2019-05-26T17:53:02.723Z,5.07
2019-05-26T17:55:31.154Z,4.70
2019-05-26T17:57:59.561Z,5.43
2019-05-26T18:00:28.040Z,4.83
2019-05-26T18:02:56.467Z,5.40
2019-05-26T18:05:24.869Z,5.00
2019-05-26T18:07:53.299Z,5.67
2019-05-26T18:10:21.771Z,4.50
2019-05-26T18:12:50.200Z,4.30
2019-05-26T18:15:19.064Z,4.90
2019-05-26T18:17:47.964Z,4.60
2019-05-26T18:20:16.622Z,4.63
2019-05-26T18:22:45.098Z,4.77
2019-05-26T18:25:13.553Z,5.53
2019-05-26T18:27:41.973Z,5.47
2019-05-26T18:30:10.848Z,5.00
2019-05-26T18:32:39.342Z,5.50
2019-05-26T18:35:08.189Z,5.20
2019-05-26T18:37:36.618Z,4.37
2019-05-26T18:40:06.295Z,4.20
2019-05-26T18:42:34.725Z,5.23
2019-05-26T18:45:03.771Z,5.33
2019-05-26T18:47:32.202Z,5.83
2019-05-26T18:50:00.603Z,5.10
2019-05-26T18:52:29.031Z,5.40
2019-05-26T18:54:57.440Z,5.70
2019-05-26T18:57:25.874Z,6.23
2019-05-26T18:59:54.274Z,6.07
2019-05-26T19:02:22.704Z,5.40
2019-05-26T19:04:51.116Z,5.63
2019-05-26T19:07:19.542Z,5.83
2019-05-26T19:09:47.944Z,7.80
2019-05-26T19:12:16.850Z,5.37
2019-05-26T19:14:45.246Z,5.27
2019-05-26T19:17:13.798Z,5.17
2019-05-26T19:19:42.233Z,6.10
2019-05-26T19:22:10.701Z,6.20
2019-05-26T19:24:39.136Z,6.23
2019-05-26T19:27:07.679Z,6.43
2019-05-26T19:29:36.113Z,7.00
2019-05-26T19:32:04.857Z,7.57
2019-05-26T19:34:33.295Z,7.07
2019-05-26T19:37:01.715Z,7.40
2019-05-26T19:39:30.144Z,8.73
2019-05-26T19:41:58.554Z,11.70
2019-05-26T19:44:26.993Z,10.60
2019-05-26T19:46:55.413Z,10.60
2019-05-26T19:49:23.854Z,10.83
2019-05-26T19:51:52.264Z,12.87
2019-05-26T19:54:20.770Z,11.43
2019-05-26T19:56:49.187Z,13.27
2019-05-26T19:59:17.635Z,13.90
2019-05-26T20:01:46.043Z,13.40
2019-05-26T20:04:14.954Z,13.37
2019-05-26T20:06:44.123Z,12.67
2019-05-26T20:09:12.658Z,14.60
2019-05-26T20:11:41.070Z,15.53
2019-05-26T20:14:09.517Z,15.07
2019-05-26T20:16:37.933Z,16.60
2019-05-26T20:19:06.411Z,16.40
2019-05-26T20:21:34.851Z,16.97
2019-05-26T20:24:03.329Z,19.20
2019-05-26T20:26:31.769Z,19.17
2019-05-26T20:29:00.186Z,17.97
2019-05-26T20:31:28.622Z,19.03
2019-05-26T20:33:57.030Z,18.60
2019-05-26T20:36:25.472Z,19.30
2019-05-26T20:38:53.948Z,19.47
2019-05-26T20:41:22.384Z,19.73
2019-05-26T20:43:50.798Z,20.87
2019-05-26T20:46:19.233Z,20.10
2019-05-26T20:48:47.646Z,19.60
2019-05-26T20:51:16.082Z,17.97
2019-05-26T20:53:44.498Z,19.33
2019-05-26T20:56:12.934Z,18.70
2019-05-26T20:58:41.346Z,17.87
2019-05-26T21:01:09.786Z,16.60
2019-05-26T21:03:38.196Z,17.03
2019-05-26T21:06:06.636Z,14.77
2019-05-26T21:08:35.046Z,15.70
2019-05-26T21:11:03.491Z,14.97
2019-05-26T21:13:31.909Z,15.60
2019-05-26T21:16:00.346Z,15.80
2019-05-26T21:18:28.756Z,16.77
2019-05-26T21:20:57.198Z,16.70
2019-05-26T21:23:25.607Z,18.50
2019-05-26T21:25:54.050Z,17.20
2019-05-26T21:28:22.464Z,17.30
2019-05-26T21:30:50.905Z,17.20
2019-05-26T21:33:19.317Z,15.20
2019-05-26T21:35:47.749Z,16.13
2019-05-26T21:38:16.165Z,15.20
2019-05-26T21:40:44.574Z,16.40
2019-05-26T21:43:13.017Z,15.60
2019-05-26T21:45:41.436Z,16.77
2019-05-26T21:48:09.875Z,17.77
2019-05-26T21:50:38.364Z,17.50
2019-05-26T21:53:06.803Z,17.30
2019-05-26T21:55:35.223Z,17.13
2019-05-26T21:58:03.658Z,17.07
2019-05-26T22:00:36.931Z,18.40
2019-05-26T22:03:05.614Z,17.60
2019-05-26T22:05:34.090Z,18.07
2019-05-26T22:08:02.534Z,18.47
2019-05-26T22:10:30.962Z,18.63
2019-05-26T22:12:59.405Z,20.40
2019-05-26T22:15:27.821Z,19.80
2019-05-26T22:17:56.255Z,18.90
2019-05-26T22:20:24.670Z,19.70
2019-05-26T22:22:53.118Z,21.27
2019-05-26T22:25:21.561Z,20.70
2019-05-26T22:27:49.971Z,21.37
2019-05-26T22:30:18.560Z,21.10
2019-05-26T22:32:46.989Z,20.87
2019-05-26T22:35:15.402Z,22.63
2019-05-26T22:37:43.836Z,21.90
2019-05-26T22:40:12.394Z,22.37
2019-05-26T22:42:40.908Z,21.87
2019-05-26T22:45:09.553Z,22.87
2019-05-26T22:47:37.990Z,23.10
2019-05-26T22:50:08.838Z,22.83
2019-05-26T22:52:37.277Z,23.13
2019-05-26T22:55:09.404Z,21.23
2019-05-26T22:57:37.841Z,22.90
2019-05-26T23:00:10.540Z,22.73
2019-05-26T23:02:38.981Z,24.40
2019-05-26T23:05:08.135Z,24.47
2019-05-26T23:07:36.579Z,24.20
2019-05-26T23:10:09.360Z,23.53
2019-05-26T23:12:37.847Z,25.17
2019-05-26T23:15:08.428Z,23.30
2019-05-26T23:17:36.838Z,25.20
2019-05-26T23:20:07.789Z,23.80
2019-05-26T23:22:36.192Z,24.40
2019-05-26T23:25:05.668Z,23.33
2019-05-26T23:27:34.080Z,24.90
2019-05-26T23:30:03.090Z,23.50
2019-05-26T23:32:31.514Z,25.03
2019-05-26T23:35:00.016Z,23.87
2019-05-26T23:37:28.424Z,24.50
2019-05-26T23:39:56.866Z,24.43
2019-05-26T23:42:25.281Z,25.10
2019-05-26T23:44:53.720Z,26.50
2019-05-26T23:47:22.120Z,24.40
2019-05-26T23:49:50.560Z,25.33
2019-05-26T23:52:19.619Z,27.03
2019-05-26T23:54:48.087Z,24.67
2019-05-26T23:57:16.495Z,25.30
2019-05-26T23:59:44.925Z,23.90
